ADDS METAR Data INFO
IDs: Format: Raw Decoded Include TAF

Data at: 0901 UTC 20 Oct 2017

KVOA 191910Z AUTO 07020KT 10SM SCT027 28/19 A3013 RMK A01
KVOA 191855Z AUTO 07022KT 10SM FEW027 28/19 A3013 RMK A01
KVOA 191835Z AUTO 08020KT 10SM FEW024 27/19 A3014 RMK A01
KVOA 191815Z AUTO 08022KT 10SM FEW026 FEW032 27/19 A3014 RMK A01
KVOA 191755Z AUTO 08022G27KT 10SM SCT024 SCT032 BKN038 28/20 A3015 RMK A01
KVOA 191735Z AUTO 07021KT 10SM SCT022 SCT027 27/21 A3015 RMK A01
KVOA 191715Z AUTO 08022KT 10SM FEW022 SCT029 SCT045 27/21 A3015 RMK A01
KVOA 191655Z AUTO 09022KT 10SM SCT024 SCT032 BKN045 27/21 A3016 RMK A01
KVOA 191635Z AUTO 08024KT 10SM SCT025 SCT032 27/20 A3016 RMK A01
KVOA 191615Z AUTO 09022KT 10SM FEW026 FEW032 FEW047 28/20 A3017 RMK A01
KVOA 191555Z AUTO 09021KT 10SM FEW025 FEW034 SCT045 27/20 A3017 RMK A01
KVOA 191535Z AUTO 09021KT 10SM FEW026 FEW031 FEW037 27/21 A3017 RMK A01
KVOA 191515Z AUTO 10020KT 10SM FEW027 FEW032 27/20 A3017 RMK A01
KVOA 191455Z AUTO 10020KT 10SM CLR 27/20 A3016 RMK A01
KVOA 191435Z AUTO 10019KT 10SM CLR 27/20 A3016 RMK A01
KVOA 191415Z AUTO 09019KT 10SM 27/20 A3016 RMK A01
KVOA 191355Z AUTO 09019KT 27/20 A3015 RMK A01
KVOA 191335Z AUTO 09020KT 10SM FEW025 FEW030 FEW065 27/20 A3014 RMK A01
KVOA 191315Z AUTO 10020KT 10SM FEW025 SCT038 BKN065 27/20 A3013 RMK A01
KVOA 191255Z AUTO 09022KT 10SM FEW024 SCT030 BKN034 27/21 A3013 RMK A01
KVOA 191235Z AUTO 10019KT 10SM FEW027 SCT032 SCT041 27/20 A3012 RMK A01
KVOA 191215Z AUTO 09021KT 10SM FEW025 SCT035 BKN047 27/21 A3012 RMK A01
KVOA 191155Z AUTO 10019KT 10SM FEW019 BKN026 OVC039 27/21 A3011 RMK A01
KVOA 191135Z AUTO 07019KT 10SM SCT020 BKN027 OVC060 27/22 A3011 RMK A01
KVOA 191115Z AUTO 07019KT 10SM FEW021 SCT028 BKN035 27/21 A3010 RMK A01
KVOA 191055Z AUTO 08017G23KT 10SM FEW022 SCT032 BKN038 27/21 A3010 RMK A01
KVOA 191035Z AUTO 09017KT 10SM FEW023 SCT034 BKN050 27/21 A3010 RMK A01
KVOA 191015Z AUTO 09018KT 10SM BKN024 BKN033 OVC050 27/21 A3010 RMK A01
KVOA 190955Z AUTO 08019KT 10SM BKN024 BKN029 OVC035 27/21 A3010 RMK A01
KVOA 190935Z AUTO 08019KT 10SM BKN025 BKN029 BKN035 27/20 A3009 RMK A01
KVOA 190915Z AUTO 08018KT 10SM SCT027 BKN032 OVC048 27/20 A3009 RMK A01
KVOA 190855Z AUTO 08021KT 10SM BKN030 BKN036 OVC050 27/20 A3009 RMK A01
KVOA 190835Z AUTO 09019KT 10SM SCT029 BKN036 OVC050 27/20 A3009 RMK A01
KVOA 190815Z AUTO 09019KT 10SM BKN028 OVC036 27/20 A3010 RMK A01
KVOA 190755Z AUTO 08020KT 10SM SCT028 BKN034 BKN042 27/20 A3010 RMK A01
KVOA 190735Z AUTO 09020KT 10SM SCT029 BKN035 OVC047 27/20 A3010 RMK A01
KVOA 190715Z AUTO 08018KT 10SM BKN030 BKN035 BKN048 27/20 A3011 RMK A01
KVOA 190655Z AUTO 09019KT 10SM SCT029 BKN035 BKN043 27/19 A3011 RMK A01
KVOA 190635Z AUTO 07018KT 10SM FEW038 FEW045 27/19 A3012 RMK A01
KVOA 190615Z AUTO 07019KT 10SM SCT041 SCT049 SCT060 27/19 A3012 RMK A01
KVOA 190555Z AUTO 06019KT 10SM SCT039 BKN045 BKN055 26/18 A3013 RMK A01
KVOA 190535Z AUTO 07018KT 10SM BKN038 BKN043 27/18 A3014 RMK A01
KVOA 190515Z AUTO 07016KT 10SM SCT036 BKN044 26/18 A3014 RMK A01
KVOA 190455Z AUTO 07019KT 10SM SCT035 BKN043 26/18 A3014 RMK A01
KVOA 190435Z AUTO 07017G22KT 10SM BKN032 BKN042 26/19 A3015 RMK A01
KVOA 190415Z AUTO 07017KT 10SM BKN031 BKN040 26/19 A3015 RMK A01
KVOA 190355Z AUTO 07017KT 10SM SCT028 26/19 A3016 RMK A01
KVOA 190335Z AUTO 08017KT 10SM FEW028 FEW037 FEW050 26/19 A3016 RMK A01
KVOA 190315Z AUTO 06017KT 10SM FEW050 25/19 A3017 RMK A01
KVOA 190255Z AUTO 06016KT 10SM FEW029 SCT043 BKN050 25/19 A3016 RMK A01
KVOA 190235Z AUTO 07018KT 10SM FEW029 SCT036 BKN048 25/18 A3016 RMK A01
KVOA 190215Z AUTO 07014KT 10SM SCT030 BKN038 BKN048 25/18 A3016 RMK A01
KVOA 190155Z AUTO 07017KT 10SM BKN029 BKN036 25/18 A3016 RMK A01
KVOA 190135Z AUTO 07016KT 10SM SCT027 SCT033 BKN040 25/18 A3015 RMK A01
KVOA 190115Z AUTO 07014KT 10SM BKN028 OVC034 25/18 A3015 RMK A01
KVOA 190055Z AUTO 06015KT 10SM BKN026 BKN032 OVC042 25/18 A3014 RMK A01
KVOA 190035Z AUTO 06017KT 10SM BKN028 BKN033 BKN041 25/18 A3014 RMK A01
KVOA 190015Z AUTO 06016KT 10SM FEW027 SCT036 SCT045 25/19 A3013 RMK A01
KVOA 182355Z AUTO 05015KT 10SM FEW028 SCT037 24/19 A3013 RMK A01
KVOA 182335Z AUTO 06017KT 10SM BKN027 BKN033 24/19 A3012 RMK A01
KVOA 182315Z AUTO 06016KT 9SM SCT025 SCT031 24/18 A3012 RMK A01
KVOA 182255Z AUTO 06019KT 10SM SCT024 SCT031 24/18 A3012 RMK A01
KVOA 182235Z AUTO 07016KT 10SM BKN027 BKN034 25/19 A3012 RMK A01
KVOA 182215Z AUTO 06015KT 10SM BKN027 BKN033 24/18 A3012 RMK A01
KVOA 182155Z AUTO 05017KT 10SM BKN027 24/18 A3012 RMK A01
KVOA 182135Z AUTO 05017KT 10SM BKN026 BKN031 24/18 A3012 RMK A01
KVOA 182115Z AUTO 05017KT 10SM BKN028 24/18 A3012 RMK A01